createdAt,value
2023-03-23T00:01:17.879Z,79.30931703813198
2023-03-23T00:04:16.615Z,79.44074331185037
2023-03-23T00:07:22.891Z,79.12046018510564
2023-03-23T00:11:18.396Z,79.66801607955529
2023-03-23T00:14:17.793Z,79.79537810012715
2023-03-23T00:17:16.516Z,79.77963754110489
2023-03-23T00:21:16.068Z,80.75039038875872
2023-03-23T00:24:18.491Z,80.97557507254018
2023-03-23T00:27:16.865Z,81.18056876930157
2023-03-23T00:31:16.361Z,80.98947300227375
2023-03-23T00:34:22.106Z,81.42454919258407
2023-03-23T00:37:17.451Z,81.56682708119034
2023-03-23T00:41:16.215Z,81.86587244296119
2023-03-23T00:44:18.039Z,82.16734799232891
2023-03-23T00:47:18.257Z,82.86385990034712
2023-03-23T00:51:17.011Z,82.76769101051327
2023-03-23T00:54:16.510Z,83.44364999057075
2023-03-23T00:57:17.004Z,83.39967401036546
2023-03-23T01:01:16.055Z,83.57046973718978
2023-03-23T01:04:16.594Z,83.56986669596812
2023-03-23T01:07:19.068Z,83.76121195107022
2023-03-23T01:11:16.644Z,84.28573295366651
2023-03-23T01:14:18.512Z,83.86733910404278
2023-03-23T01:17:16.018Z,83.91241534677634
2023-03-23T01:21:19.661Z,83.92342824575361
2023-03-23T01:24:16.563Z,84.0452812889635
2023-03-23T01:27:16.424Z,84.29400051842197
2023-03-23T01:31:19.125Z,84.06264334251024
2023-03-23T01:34:16.748Z,84.36302644256921
2023-03-23T01:37:17.524Z,83.97588802671706
2023-03-23T01:41:18.283Z,82.77256150374963
2023-03-23T01:45:30.021Z,82.69836784139765
2023-03-23T01:47:20.116Z,82.68889440343904
2023-03-23T01:51:19.181Z,83.2853630764386
2023-03-23T01:54:21.477Z,83.97832062954214
2023-03-23T01:57:19.037Z,84.29863273547673
2023-03-23T02:01:16.298Z,84.17498434311985
2023-03-23T02:04:17.239Z,83.93668804705632
2023-03-23T02:07:20.282Z,83.92227158467408
2023-03-23T02:11:21.989Z,83.53524247049629
2023-03-23T02:14:16.757Z,84.05279379784295
2023-03-23T02:17:25.527Z,84.27374564752098
2023-03-23T02:21:39.485Z,84.16347824090413
2023-03-23T02:41:18.140Z,83.72974922777794
2023-03-23T02:44:17.452Z,84.61203898096963
2023-03-23T02:47:20.206Z,84.91703551339084
2023-03-23T02:51:18.293Z,85.4977108655698
2023-03-23T02:54:18.954Z,85.4217893324023
2023-03-23T02:57:18.604Z,85.138803840635
2023-03-23T03:01:51.131Z,84.58169313468852
2023-03-23T03:04:20.207Z,84.91940422079162
2023-03-23T03:07:33.518Z,84.98648878041998
2023-03-23T03:11:18.500Z,84.7490195991731
2023-03-23T03:14:24.202Z,84.89214847657807
2023-03-23T03:17:23.340Z,85.13158221368195
2023-03-23T03:21:19.708Z,85.33183137050422
2023-03-23T03:24:20.798Z,85.4833222469621
2023-03-23T03:27:20.635Z,85.70034059871548
2023-03-23T03:31:19.590Z,85.5980575986945
2023-03-23T03:34:18.977Z,85.80789041884053
2023-03-23T03:37:18.530Z,86.6402051138125
2023-03-23T03:41:17.416Z,87.21362707973707
2023-03-23T03:44:16.986Z,87.32762252847378
2023-03-23T03:47:16.551Z,87.48967745066386
2023-03-23T03:51:18.112Z,87.68768081789325
2023-03-23T03:54:17.309Z,87.49870906820374
2023-03-23T03:57:18.848Z,88.35809426985571
2023-03-23T04:01:18.424Z,88.37142193950142
2023-03-23T04:04:16.322Z,88.25926910042133
2023-03-23T04:07:17.447Z,88.34024072008299
2023-03-23T04:11:33.034Z,88.1545007662544
2023-03-23T04:14:17.320Z,88.4294245780878
2023-03-23T04:17:18.636Z,88.54683431193381
2023-03-23T04:21:17.312Z,88.88814436145941
2023-03-23T04:24:23.329Z,88.93308755939158
2023-03-23T04:27:17.516Z,88.96348897235205
2023-03-23T04:31:16.702Z,89.33355750902706
2023-03-23T04:34:17.289Z,89.05874047487671
2023-03-23T04:37:16.909Z,88.727197033752
2023-03-23T04:41:16.599Z,88.56879269009026
2023-03-23T04:44:19.029Z,88.09765238187269
2023-03-23T04:47:18.630Z,87.94198658538966
2023-03-23T04:51:15.963Z,87.75045795996424
2023-03-23T04:54:16.651Z,87.877677893293
2023-03-23T04:57:16.680Z,87.57666464177916
2023-03-23T05:01:19.137Z,87.89293885770157
2023-03-23T05:04:18.358Z,88.07911025750661
2023-03-23T05:07:17.215Z,88.15998570242603
2023-03-23T05:11:16.092Z,88.51817852756817
2023-03-23T05:14:16.807Z,88.82051822778287
2023-03-23T05:17:18.151Z,88.50849278002693
2023-03-23T05:21:16.387Z,88.50426796064205
2023-03-23T05:24:17.159Z,88.82575175629529
2023-03-23T05:27:19.458Z,89.01507813123355
2023-03-23T05:31:16.171Z,88.85957469457098
2023-03-23T05:34:17.519Z,89.0021775645616
2023-03-23T05:37:16.491Z,88.84972130177812
2023-03-23T05:41:16.986Z,88.83064565083093
2023-03-23T05:44:16.626Z,89.31828045330872
2023-03-23T05:47:16.966Z,89.48984830210102
2023-03-23T05:51:18.854Z,89.025558855724
2023-03-23T05:54:17.733Z,89.34592738961781
2023-03-23T05:57:17.807Z,89.3901241457532
2023-03-23T06:01:18.155Z,89.32442411144845
2023-03-23T06:04:18.357Z,89.25102132616863
2023-03-23T06:07:17.656Z,89.6463680018296
2023-03-23T06:11:16.714Z,89.9594524340364
2023-03-23T06:14:18.706Z,90.23503541510576
2023-03-23T06:17:17.746Z,90.36615732647684
2023-03-23T06:21:18.381Z,90.33871943297252
2023-03-23T06:24:16.849Z,90.1215860471982
2023-03-23T06:27:17.815Z,90.2792944076969
2023-03-23T06:31:18.798Z,90.58065308983757
2023-03-23T06:34:18.137Z,90.86626306515772
2023-03-23T06:37:17.281Z,91.28809368417112
2023-03-23T06:41:17.048Z,91.34479075595426
2023-03-23T06:44:17.769Z,91.38340198323385
2023-03-23T06:47:17.245Z,91.99811520190065
2023-03-23T06:51:15.957Z,92.63802203436157
2023-03-23T06:54:16.711Z,92.7993268475653
2023-03-23T06:57:15.925Z,93.5100069645194
2023-03-23T07:01:17.132Z,93.72708719960129
2023-03-23T07:04:17.246Z,93.25502329266546
2023-03-23T07:07:19.383Z,92.65790886089249
2023-03-23T07:11:16.402Z,92.50825988035568
2023-03-23T07:14:16.882Z,92.167405053587
2023-03-23T07:17:16.463Z,92.82135884578513
2023-03-23T07:21:16.622Z,92.32640762762202
2023-03-23T07:24:17.166Z,92.29684945606733
2023-03-23T07:27:16.741Z,91.60265669591338
2023-03-23T07:31:15.987Z,92.6351605543222
2023-03-23T07:34:15.948Z,92.9425856788826
2023-03-23T07:37:16.960Z,92.25243033950815
2023-03-23T07:41:15.979Z,92.39650950341306
2023-03-23T07:44:16.766Z,91.75182107771533
2023-03-23T07:47:16.617Z,90.5052585285076
2023-03-23T07:51:17.285Z,88.84208040631094
2023-03-23T07:54:17.131Z,88.19847234702851
2023-03-23T07:57:16.092Z,87.5614379068599
2023-03-23T08:01:16.906Z,86.46822270588359
2023-03-23T08:04:16.753Z,86.27906506798466
2023-03-23T08:07:20.019Z,87.76136078778593
2023-03-23T08:11:17.678Z,89.00980680255279
2023-03-23T08:21:15.937Z,91.3501158406915
2023-03-23T08:24:16.493Z,91.47376762099024
2023-03-23T08:27:16.757Z,90.1279682198527
2023-03-23T08:31:16.170Z,89.83275333138091
2023-03-23T08:41:15.959Z,90.09608182550542
2023-03-23T08:44:16.728Z,89.82144539457411
2023-03-23T08:47:17.904Z,90.62970641953669
2023-03-23T08:51:16.828Z,89.52401725914916
2023-03-23T08:54:18.116Z,89.10416272186434
2023-03-23T08:57:17.009Z,89.00310491324811
2023-03-23T09:01:16.537Z,87.99179664537994
2023-03-23T09:11:16.942Z,87.0772290074868
2023-03-23T09:14:16.712Z,85.8913507781508
2023-03-23T09:17:16.810Z,86.42881247700242
2023-03-23T09:21:19.121Z,86.47755219071237
2023-03-23T09:24:16.226Z,86.44756902033463
2023-03-23T09:27:17.165Z,86.91480539972645
2023-03-23T09:31:17.721Z,84.75069618505485
2023-03-23T09:34:16.482Z,84.33271571098824
2023-03-23T09:37:17.676Z,84.28071240676938
2023-03-23T09:41:34.399Z,84.06980404924526
2023-03-23T09:44:24.983Z,83.72122578290958
2023-03-23T09:47:21.947Z,83.25218910587606
2023-03-23T09:51:26.753Z,82.72034691686741
2023-03-23T09:54:21.905Z,81.32656958304372
2023-03-23T09:57:25.532Z,79.56112435552217
2023-03-23T10:01:21.875Z,77.40065135467862
2023-03-23T10:04:27.124Z,77.2150147467745
2023-03-23T10:07:19.360Z,76.19538512797979
2023-03-23T10:11:27.167Z,71.58040990347476
2023-03-23T10:14:29.062Z,71.25642039709507
2023-03-23T10:17:22.837Z,69.632754776924
2023-03-23T10:21:21.214Z,69.04209243384456
2023-03-23T10:24:21.350Z,68.83529142362471
2023-03-23T10:27:30.416Z,66.52994342422907
2023-03-23T10:31:19.427Z,62.52989842567487
2023-03-23T10:34:20.913Z,62.538439115251805
2023-03-23T10:37:20.497Z,61.485325795389535
2023-03-23T10:41:18.923Z,59.76549642592793
2023-03-23T10:44:18.974Z,58.768105893451434
2023-03-23T10:47:18.607Z,59.697447976919065
2023-03-23T10:51:21.045Z,57.789282273693274
2023-03-23T10:54:27.336Z,57.64258372880071
2023-03-23T10:57:23.146Z,54.738372238842224
2023-03-23T11:01:19.589Z,55.22002193762119
2023-03-23T11:04:18.754Z,55.997511894422715
2023-03-23T11:07:24.326Z,53.12822895868344
2023-03-23T11:11:27.616Z,51.89133232665137
2023-03-23T11:14:26.714Z,52.03771400859698
2023-03-23T11:17:24.371Z,51.98623329512519
2023-03-23T11:21:16.357Z,50.17816638310374
2023-03-23T11:24:17.869Z,48.55257517708767
2023-03-23T11:27:16.942Z,49.01407662066571
2023-03-23T11:31:17.345Z,47.955525999855865
2023-03-23T11:34:22.069Z,47.77437317611727
2023-03-23T11:37:22.948Z,46.770976089326346
2023-03-23T11:41:19.397Z,44.52834596941184
2023-03-23T11:44:16.723Z,44.25400478031472
2023-03-23T11:47:24.899Z,43.95532935264622
2023-03-23T11:51:21.028Z,46.053074213996794
2023-03-23T11:54:24.325Z,45.000991448150735
2023-03-23T11:57:17.246Z,44.57623464191802
2023-03-23T12:01:27.855Z,44.80347123776646
2023-03-23T12:04:33.741Z,43.71461619329838
2023-03-23T12:07:40.043Z,43.045055865958
2023-03-23T12:11:25.854Z,41.838569024873635
2023-03-23T12:14:25.178Z,43.72269629409143
2023-03-23T12:17:27.054Z,42.42362697862314
2023-03-23T12:21:25.394Z,41.828662203492996
2023-03-23T12:24:27.264Z,42.01991388888106
2023-03-23T12:27:25.929Z,39.230628402953734
2023-03-23T12:31:22.854Z,38.53538998299523
2023-03-23T12:34:27.064Z,38.65671003841715
2023-03-23T12:37:32.183Z,39.44426131958022
2023-03-23T12:41:18.385Z,40.89234560362778
2023-03-23T12:44:24.456Z,38.72440761571058
2023-03-23T12:47:34.642Z,37.98719971711799
2023-03-23T12:51:23.611Z,38.31738806844226
2023-03-23T12:54:27.457Z,38.27060853415105
2023-03-23T12:57:24.173Z,37.47444374376713
2023-03-23T13:01:24.082Z,37.77586103488929
2023-03-23T13:04:21.659Z,36.921172473992115
2023-03-23T13:07:26.630Z,36.78646127695125
2023-03-23T13:11:22.397Z,37.25724092570223
2023-03-23T13:14:30.269Z,37.07103169304992
2023-03-23T13:17:30.827Z,37.76245239935277
2023-03-23T13:21:22.419Z,36.54680581455104
2023-03-23T13:24:23.594Z,36.9475769449966
2023-03-23T13:27:17.255Z,36.900827700626124
2023-03-23T13:31:20.334Z,38.191261254695576
2023-03-23T13:34:19.881Z,37.27187103842273
2023-03-23T13:37:23.782Z,38.61485838546305
2023-03-23T13:41:18.937Z,36.93252737937575
2023-03-23T13:44:23.185Z,36.740587167170354
2023-03-23T13:47:26.571Z,37.06105320131869
2023-03-23T13:51:59.484Z,36.329041252113065
2023-03-23T13:54:25.262Z,37.98627911573682
2023-03-23T13:57:26.221Z,37.241329154055
2023-03-23T14:01:19.022Z,35.55367978254372
2023-03-23T14:04:18.729Z,35.58207514243763
2023-03-23T14:07:17.964Z,36.3613797262885
2023-03-23T14:11:22.218Z,38.317364368370164
2023-03-23T14:14:23.862Z,36.58785020777987
2023-03-23T14:17:22.247Z,38.403779409449754
2023-03-23T14:21:23.344Z,37.56584834764207
2023-03-23T14:24:18.201Z,37.874680329862905
2023-03-23T14:27:20.233Z,38.06081237653516
2023-03-23T14:31:20.959Z,38.578544949858966
2023-03-23T14:34:19.940Z,37.72887274587752
2023-03-23T14:37:16.560Z,38.33970860974081
2023-03-23T14:41:15.736Z,38.45024317081291
2023-03-23T14:44:21.430Z,38.840044670010464
2023-03-23T14:47:20.432Z,38.903964588448694
2023-03-23T14:51:19.222Z,40.009183544778054
2023-03-23T14:54:22.818Z,38.90366292299409
2023-03-23T14:57:18.442Z,38.74076797294347
2023-03-23T15:01:19.915Z,40.03238244664466
2023-03-23T15:04:19.378Z,39.75888375427986
2023-03-23T15:07:19.634Z,39.81127577142841
2023-03-23T15:11:24.046Z,39.58428738253448
2023-03-23T15:14:19.062Z,40.75355645276654
2023-03-23T15:17:20.765Z,39.38662902914097
2023-03-23T15:21:23.589Z,39.75914156791039
2023-03-23T15:24:26.360Z,40.11397356357804
2023-03-23T15:27:25.054Z,40.026718279421445
2023-03-23T15:31:16.678Z,40.06175240270981
2023-03-23T15:34:35.304Z,38.20113798861253
2023-03-23T15:37:21.156Z,38.405051185875585
2023-03-23T15:41:25.156Z,39.21376048301609
2023-03-23T15:44:23.902Z,37.0821998669615
2023-03-23T15:47:18.871Z,39.05150223378135
2023-03-23T15:51:18.090Z,38.73204984269454
2023-03-23T15:54:16.390Z,39.2435545992971
2023-03-23T15:57:16.264Z,37.84949481422804
2023-03-23T16:01:22.310Z,37.618387337450415
2023-03-23T16:04:18.695Z,37.51382175312372
2023-03-23T16:07:19.342Z,38.19961569557538
2023-03-23T16:11:18.015Z,37.82299897398646
2023-03-23T16:14:17.016Z,36.51173129666694
2023-03-23T16:17:19.262Z,35.81079338063778
2023-03-23T16:21:15.892Z,36.30477638175449
2023-03-23T16:24:16.233Z,35.76152828902131
2023-03-23T16:27:17.306Z,35.88928260730943
2023-03-23T16:31:16.441Z,36.534378095136596
2023-03-23T16:34:16.833Z,35.717798647096586
2023-03-23T16:37:17.192Z,35.1347072661574
2023-03-23T16:41:16.450Z,35.30327494478759
2023-03-23T16:44:16.671Z,35.76218454067023
2023-03-23T16:47:18.841Z,35.42830926684576
2023-03-23T16:51:16.099Z,35.261322403868036
2023-03-23T16:54:16.334Z,35.715167023224666
2023-03-23T16:57:16.704Z,35.698543244326814
2023-03-23T17:01:16.526Z,36.226339394239886
2023-03-23T17:04:16.843Z,36.14591958822958
2023-03-23T17:07:17.176Z,36.70810764139051
2023-03-23T17:11:16.180Z,36.71482859168293
2023-03-23T17:14:16.547Z,36.79087992040571
2023-03-23T17:17:16.794Z,37.07507320142955
2023-03-23T17:21:16.120Z,37.30706316280415
2023-03-23T17:24:16.761Z,37.47477399904905
2023-03-23T17:27:18.940Z,37.62562959023875
2023-03-23T17:31:16.070Z,37.395911200696176
2023-03-23T17:34:18.664Z,37.78858916411873
2023-03-23T17:37:16.915Z,38.037232411246784
2023-03-23T17:41:16.277Z,38.16445645270798
2023-03-23T17:44:15.879Z,39.03454403519323
2023-03-23T17:47:15.894Z,39.76595182230637
2023-03-23T17:51:16.333Z,40.370191321401535
2023-03-23T17:54:16.354Z,41.30162247505918
2023-03-23T17:57:16.493Z,41.23236246768385
2023-03-23T18:01:16.154Z,41.85863733447134
2023-03-23T18:04:16.381Z,42.18534081597489
2023-03-23T18:07:16.309Z,42.74755794283617
2023-03-23T18:11:15.894Z,43.108356527566976
2023-03-23T18:14:16.462Z,43.36590268117271
2023-03-23T18:17:16.410Z,43.93281897082869
2023-03-23T18:21:16.622Z,44.41372272927986
2023-03-23T18:24:16.765Z,44.68190583695278
2023-03-23T18:27:17.463Z,44.98999815788742
2023-03-23T18:31:18.397Z,45.1553258470057
2023-03-23T18:34:17.361Z,45.45214630900564
2023-03-23T18:37:18.793Z,45.908565079832776
2023-03-23T18:41:17.736Z,46.11314971759031
2023-03-23T18:44:16.143Z,46.283188750574965
2023-03-23T18:47:16.548Z,46.12764798876833
2023-03-23T18:51:16.222Z,46.30406833048198
2023-03-23T18:54:17.544Z,46.211321464151276
2023-03-23T18:57:18.410Z,46.51736858760223
2023-03-23T19:01:17.632Z,46.534343541943564
2023-03-23T19:04:18.031Z,46.937400413468
2023-03-23T19:07:18.030Z,47.46117052395861
2023-03-23T19:11:17.453Z,47.50692203310673
2023-03-23T19:14:17.960Z,47.898407137074535
2023-03-23T19:17:16.910Z,48.062443667421455
2023-03-23T19:21:19.740Z,48.311881789107424
2023-03-23T19:24:16.702Z,48.67580270862445
2023-03-23T19:27:16.746Z,48.993589479626976
2023-03-23T19:31:17.086Z,48.89014366766574
2023-03-23T19:34:17.518Z,49.150328350521875
2023-03-23T19:37:17.478Z,49.18949246616864
2023-03-23T19:41:19.051Z,49.676746367576584
2023-03-23T19:44:17.775Z,50.88089014921205
2023-03-23T19:47:16.774Z,50.78605468544692
2023-03-23T19:51:18.937Z,50.49083145516986
2023-03-23T19:54:17.090Z,50.87420140253394
2023-03-23T19:57:17.213Z,51.36008989952183
2023-03-23T20:01:16.518Z,52.35116715207999
2023-03-23T20:04:19.397Z,52.24671870555035
2023-03-23T20:07:16.712Z,52.13934696644587
2023-03-23T20:11:18.269Z,52.45031170890846
2023-03-23T20:14:17.772Z,52.57881879068125
2023-03-23T20:17:16.680Z,52.96250220405657
2023-03-23T20:21:19.991Z,53.192606936702916
2023-03-23T20:24:17.086Z,53.74517763176931
2023-03-23T20:27:17.497Z,53.896601376377625
2023-03-23T20:31:23.936Z,53.9744364992342
2023-03-23T20:34:30.680Z,53.990202429371735
2023-03-23T20:37:18.399Z,54.163176836092205
2023-03-23T20:41:18.438Z,54.675182870765106
2023-03-23T20:44:18.412Z,54.68422716987635
2023-03-23T20:47:16.898Z,55.05965941703433
2023-03-23T20:51:17.465Z,55.0590774448204
2023-03-23T20:54:17.986Z,55.22570703407958
2023-03-23T20:57:16.848Z,55.92919958583812
2023-03-23T21:01:16.477Z,56.10454158222037
2023-03-23T21:04:20.975Z,57.039299826786824
2023-03-23T21:07:18.214Z,57.28151513834381
2023-03-23T21:11:18.649Z,57.52725674965119
2023-03-23T21:14:17.065Z,57.560299046908405
2023-03-23T21:17:16.820Z,57.83382812572337
2023-03-23T21:21:18.356Z,57.934042397391096
2023-03-23T21:24:16.924Z,58.24336231957135
2023-03-23T21:27:17.085Z,58.184347116355575
2023-03-23T21:31:17.644Z,58.25572076844712
2023-03-23T21:34:16.482Z,58.57246701936233
2023-03-23T21:37:16.330Z,58.64525825144711
2023-03-23T21:41:16.809Z,58.845608118689874
2023-03-23T21:44:18.175Z,59.35382820050139
2023-03-23T21:47:18.198Z,59.70695236566517
2023-03-23T21:51:17.749Z,59.89190530632038
2023-03-23T21:54:16.219Z,59.995086155600035
2023-03-23T21:57:16.478Z,60.28154215733745
2023-03-23T22:01:18.111Z,60.55436381691904
2023-03-23T22:04:17.508Z,60.698192175355146
2023-03-23T22:07:16.888Z,60.83792514956599
2023-03-23T22:11:19.572Z,61.610290158364364
2023-03-23T22:14:16.968Z,61.94043740577743
2023-03-23T22:17:17.467Z,63.512473628840716
2023-03-23T22:21:17.187Z,63.04988906480456
2023-03-23T22:24:16.816Z,63.11665386470933
2023-03-23T22:27:17.095Z,62.98764882220466
2023-03-23T22:31:19.921Z,63.23453353891765
2023-03-23T22:34:16.860Z,63.33631993822183
2023-03-23T22:37:18.773Z,63.75133240484631
2023-03-23T22:41:18.389Z,64.10349684315227
2023-03-23T22:44:18.379Z,64.52566146689857
2023-03-23T22:47:16.556Z,64.77508558741978
2023-03-23T22:51:18.230Z,65.02600896845163
2023-03-23T22:54:17.039Z,65.72696566943559
2023-03-23T22:57:17.364Z,65.82185494343473
2023-03-23T23:01:18.458Z,66.38251306085337
2023-03-23T23:04:16.424Z,66.5488596377912
2023-03-23T23:07:16.535Z,67.17935711517305
2023-03-23T23:11:18.163Z,67.96442537798242
2023-03-23T23:14:16.171Z,67.91957649159035
2023-03-23T23:17:16.119Z,67.92334118767248
2023-03-23T23:21:18.715Z,68.10608287676865
2023-03-23T23:24:17.196Z,67.99135420050402
2023-03-23T23:27:18.232Z,67.86153023257312
2023-03-23T23:31:22.759Z,68.17833558789191
2023-03-23T23:34:16.655Z,68.2035914239232
2023-03-23T23:37:16.625Z,68.46123524766274
2023-03-23T23:41:15.888Z,68.82416624606475
2023-03-23T23:44:16.829Z,69.44754986708838
2023-03-23T23:47:16.157Z,69.38728448369324
2023-03-23T23:51:18.284Z,69.68437799501392
2023-03-23T23:54:23.210Z,69.88145241853559
2023-03-23T23:57:17.656Z,70.15075086066912
